Terminal Aerodrome Forecast
Issued by NWS

Home | Current Version | Previous Version | Graphics & Text | Print | Product List | Glossary On
Versions: 1 2 3 4 5 6 7 8 9 10 11 12 13 14
401
FTUS43 KGRB 101720
TAFCWA
TAF
KCWA 101720Z 1018/1118 33009G15KT P6SM BKN028
     FM102200 32008KT P6SM SCT035
     FM110100 33005KT P6SM SKC
     FM111500 29008G13KT P6SM SKC=

USA.gov is the U.S. government's official web portal to all federal, state and local government web resources and services.